createdAt,value
2017-05-22T00:00:05.592Z,14.09
2017-05-22T00:01:07.433Z,14.09
2017-05-22T00:02:21.581Z,14.06
2017-05-22T00:03:23.397Z,14.12
2017-05-22T00:04:25.260Z,14.00
2017-05-22T00:05:27.101Z,14.04
2017-05-22T00:06:28.937Z,14.06
2017-05-22T00:07:30.780Z,13.99
2017-05-22T00:08:32.619Z,13.99
2017-05-22T00:09:34.838Z,14.04
2017-05-22T00:10:36.680Z,14.02
2017-05-22T00:11:50.799Z,14.03
2017-05-22T00:12:52.619Z,14.00
2017-05-22T00:13:54.441Z,13.87
2017-05-22T00:14:56.279Z,13.95
2017-05-22T00:15:58.097Z,13.89
2017-05-22T00:16:59.907Z,13.85
2017-05-22T00:18:01.724Z,13.89
2017-05-22T00:19:03.571Z,13.84
2017-05-22T00:20:05.806Z,13.77
2017-05-22T00:21:19.977Z,13.69
2017-05-22T00:22:21.822Z,13.71
2017-05-22T00:23:23.665Z,13.62
2017-05-22T00:24:25.473Z,13.55
2017-05-22T00:25:27.343Z,13.67
2017-05-22T00:26:29.192Z,13.67
2017-05-22T00:27:31.032Z,13.62
2017-05-22T00:28:32.867Z,13.63
2017-05-22T00:29:34.686Z,13.67
2017-05-22T00:30:49.290Z,13.64
2017-05-22T00:31:51.124Z,13.64
2017-05-22T00:32:52.943Z,13.57
2017-05-22T00:33:54.758Z,13.52
2017-05-22T00:34:56.599Z,13.52
2017-05-22T00:35:58.437Z,13.51
2017-05-22T00:37:00.277Z,13.36
2017-05-22T00:38:02.091Z,13.32
2017-05-22T00:39:03.931Z,13.32
2017-05-22T00:40:18.229Z,13.33
2017-05-22T00:41:20.075Z,13.26
2017-05-22T00:42:21.911Z,13.25
2017-05-22T00:43:23.755Z,13.26
2017-05-22T00:44:25.570Z,13.26
2017-05-22T00:45:27.403Z,13.20
2017-05-22T00:46:29.322Z,13.23
2017-05-22T00:47:31.167Z,13.25
2017-05-22T00:48:33.005Z,13.29
2017-05-22T00:49:47.178Z,13.23
2017-05-22T00:50:48.992Z,13.28
2017-05-22T00:51:51.235Z,13.15
2017-05-22T00:52:53.077Z,13.25
2017-05-22T00:53:54.920Z,13.23
2017-05-22T00:54:56.767Z,13.19
2017-05-22T00:55:58.596Z,13.23
2017-05-22T00:57:00.611Z,13.19
2017-05-22T00:58:02.427Z,13.22
2017-05-22T00:59:16.559Z,13.15
2017-05-22T01:00:18.389Z,13.19
2017-05-22T01:01:20.226Z,13.08
2017-05-22T01:02:22.045Z,13.05
2017-05-22T01:03:23.857Z,12.95
2017-05-22T01:04:25.679Z,12.96
2017-05-22T01:05:27.521Z,13.05
2017-05-22T01:06:29.357Z,12.93
2017-05-22T01:07:31.301Z,12.89
2017-05-22T01:08:45.420Z,12.93
2017-05-22T01:09:47.245Z,12.87
2017-05-22T01:10:49.078Z,12.89
2017-05-22T01:11:50.913Z,12.90
2017-05-22T01:12:52.784Z,12.82
2017-05-22T01:13:54.627Z,12.77
2017-05-22T01:14:56.459Z,12.77
2017-05-22T01:15:58.301Z,12.71
2017-05-22T01:17:00.140Z,12.65
2017-05-22T01:18:14.612Z,12.67
2017-05-22T01:19:16.452Z,12.65
2017-05-22T01:20:18.296Z,12.62
2017-05-22T01:21:20.136Z,12.57
2017-05-22T01:22:21.974Z,12.64
2017-05-22T01:23:23.850Z,12.57
2017-05-22T01:24:25.692Z,12.60
2017-05-22T01:25:27.540Z,12.64
2017-05-22T01:26:29.376Z,12.62
2017-05-22T01:27:43.623Z,12.60
2017-05-22T01:28:45.461Z,12.60
2017-05-22T01:29:47.277Z,12.62
2017-05-22T01:30:49.112Z,12.56
2017-05-22T01:31:50.954Z,12.57
2017-05-22T01:32:52.767Z,12.53
2017-05-22T01:33:54.608Z,12.53
2017-05-22T01:34:56.447Z,12.59
2017-05-22T01:35:58.293Z,12.50
2017-05-22T01:37:12.415Z,12.56
2017-05-22T01:38:14.255Z,12.45
2017-05-22T01:39:16.093Z,12.37
2017-05-22T01:40:17.935Z,12.42
2017-05-22T01:41:19.773Z,12.39
2017-05-22T01:42:21.588Z,12.45
2017-05-22T01:43:23.406Z,12.35
2017-05-22T01:44:25.239Z,12.34
2017-05-22T01:45:27.060Z,12.35
2017-05-22T01:46:41.241Z,12.37
2017-05-22T01:47:43.070Z,12.47
2017-05-22T01:48:44.884Z,12.35
2017-05-22T01:49:46.823Z,12.34
2017-05-22T01:50:48.660Z,12.45
2017-05-22T01:51:50.481Z,12.39
2017-05-22T01:52:52.323Z,12.29
2017-05-22T01:53:54.164Z,12.29
2017-05-22T01:54:56.279Z,12.32
2017-05-22T01:56:10.455Z,12.19
2017-05-22T01:57:12.300Z,12.19
2017-05-22T01:58:14.139Z,12.24
2017-05-22T01:59:15.983Z,12.27
2017-05-22T02:00:17.826Z,12.20
2017-05-22T02:01:19.661Z,12.27
2017-05-22T02:02:21.480Z,12.17
2017-05-22T02:03:23.294Z,12.23
2017-05-22T02:04:25.135Z,12.21
2017-05-22T02:05:39.459Z,12.19
2017-05-22T02:06:41.297Z,12.09
2017-05-22T02:07:43.119Z,12.07
2017-05-22T02:08:44.927Z,12.09
2017-05-22T02:09:46.770Z,12.16
2017-05-22T02:10:48.708Z,12.05
2017-05-22T02:11:50.523Z,12.13
2017-05-22T02:12:52.341Z,12.09
2017-05-22T02:13:54.182Z,12.02
2017-05-22T02:15:08.476Z,12.01
2017-05-22T02:16:10.293Z,11.94
2017-05-22T02:17:12.110Z,11.86
2017-05-22T02:18:13.951Z,12.05
2017-05-22T02:19:15.791Z,11.91
2017-05-22T02:20:17.626Z,11.94
2017-05-22T02:21:19.445Z,11.90
2017-05-22T02:22:21.285Z,11.83
2017-05-22T02:23:23.123Z,11.83
2017-05-22T02:24:37.297Z,11.82
2017-05-22T02:25:39.136Z,11.85
2017-05-22T02:26:41.254Z,11.80
2017-05-22T02:27:43.099Z,11.80
2017-05-22T02:28:44.936Z,11.76
2017-05-22T02:29:46.783Z,11.79
2017-05-22T02:30:48.623Z,11.78
2017-05-22T02:31:50.465Z,11.76
2017-05-22T02:32:52.303Z,11.82
2017-05-22T02:34:06.478Z,11.80
2017-05-22T02:35:08.324Z,11.70
2017-05-22T02:36:10.136Z,11.73
2017-05-22T02:37:11.984Z,11.73
2017-05-22T02:38:13.823Z,11.70
2017-05-22T02:39:15.639Z,11.58
2017-05-22T02:40:17.485Z,11.65
2017-05-22T02:41:19.323Z,11.62
2017-05-22T02:42:21.566Z,11.58
2017-05-22T02:43:35.694Z,11.58
2017-05-22T02:44:37.537Z,11.60
2017-05-22T02:45:39.349Z,11.65
2017-05-22T02:46:41.166Z,11.72
2017-05-22T02:47:43.005Z,11.75
2017-05-22T02:48:44.938Z,11.65
2017-05-22T02:49:46.754Z,11.73
2017-05-22T02:50:48.571Z,11.79
2017-05-22T02:51:50.417Z,11.78
2017-05-22T02:53:04.698Z,11.85
2017-05-22T02:54:06.542Z,11.85
2017-05-22T02:55:08.381Z,11.82
2017-05-22T02:56:10.200Z,11.73
2017-05-22T02:57:12.043Z,11.79
2017-05-22T02:58:14.287Z,11.79
2017-05-22T02:59:16.102Z,11.76
2017-05-22T03:00:17.950Z,11.86
2017-05-22T03:01:19.763Z,11.82
2017-05-22T03:02:33.940Z,11.78
2017-05-22T03:03:35.783Z,11.69
2017-05-22T03:04:37.625Z,11.75
2017-05-22T03:05:39.442Z,11.79
2017-05-22T03:06:41.289Z,11.64
2017-05-22T03:07:43.135Z,11.58
2017-05-22T03:08:45.157Z,11.64
2017-05-22T03:09:46.998Z,11.70
2017-05-22T03:10:48.839Z,11.75
2017-05-22T03:12:02.986Z,11.70
2017-05-22T03:13:04.838Z,11.70
2017-05-22T03:14:06.680Z,11.72
2017-05-22T03:15:08.523Z,11.75
2017-05-22T03:16:10.364Z,11.69
2017-05-22T03:17:12.212Z,11.73
2017-05-22T03:18:14.026Z,11.70
2017-05-22T03:19:15.895Z,11.78
2017-05-22T03:20:17.752Z,11.64
2017-05-22T03:21:31.882Z,11.57
2017-05-22T03:22:33.725Z,11.75
2017-05-22T03:23:35.574Z,11.69
2017-05-22T03:24:37.523Z,11.78
2017-05-22T03:25:39.341Z,11.78
2017-05-22T03:26:41.186Z,11.83
2017-05-22T03:27:43.030Z,11.96
2017-05-22T03:28:44.854Z,12.05
2017-05-22T03:29:46.908Z,12.19
2017-05-22T03:31:01.082Z,12.32
2017-05-22T03:32:02.927Z,12.42
2017-05-22T03:33:04.746Z,12.62
2017-05-22T03:34:06.569Z,12.78
2017-05-22T03:35:08.417Z,12.95
2017-05-22T03:36:10.241Z,13.15
2017-05-22T03:37:12.061Z,13.28
2017-05-22T03:38:13.883Z,13.49
2017-05-22T03:39:15.699Z,13.71
2017-05-22T03:40:30.106Z,13.92
2017-05-22T03:41:31.951Z,14.18
2017-05-22T03:42:33.774Z,14.50
2017-05-22T03:43:35.624Z,14.68
2017-05-22T03:44:37.474Z,14.88
2017-05-22T03:45:39.423Z,15.09
2017-05-22T03:46:41.275Z,15.34
2017-05-22T03:47:43.090Z,15.59
2017-05-22T03:48:44.944Z,15.74
2017-05-22T03:49:59.250Z,15.92
2017-05-22T03:51:01.105Z,15.89
2017-05-22T03:52:02.954Z,16.00
2017-05-22T03:53:04.807Z,16.01
2017-05-22T03:54:06.658Z,16.20
2017-05-22T03:55:08.512Z,16.39
2017-05-22T03:56:10.353Z,16.48
2017-05-22T03:57:12.179Z,16.66
2017-05-22T03:58:14.000Z,16.82
2017-05-22T03:59:28.131Z,17.16
2017-05-22T04:00:29.979Z,17.30
2017-05-22T04:01:32.229Z,17.44
2017-05-22T04:02:34.053Z,17.75
2017-05-22T04:03:35.881Z,17.97
2017-05-22T04:04:37.736Z,18.00
2017-05-22T04:05:39.590Z,18.17
2017-05-22T04:06:41.539Z,18.39
2017-05-22T04:07:43.388Z,18.54
2017-05-22T04:08:57.523Z,18.72
2017-05-22T04:09:59.376Z,19.04
2017-05-22T04:11:01.204Z,19.25
2017-05-22T04:12:03.404Z,19.54
2017-05-22T04:13:05.233Z,19.88
2017-05-22T04:14:07.080Z,20.08
2017-05-22T04:15:08.910Z,20.32
2017-05-22T04:16:10.765Z,20.52
2017-05-22T04:17:12.622Z,20.84
2017-05-22T04:18:26.756Z,21.14
2017-05-22T04:19:28.609Z,21.46
2017-05-22T04:20:30.465Z,21.72
2017-05-22T04:21:32.300Z,21.80
2017-05-22T04:22:34.548Z,22.12
2017-05-22T04:23:36.378Z,22.17
2017-05-22T04:24:38.234Z,22.20
2017-05-22T04:25:40.066Z,22.28
2017-05-22T04:26:41.925Z,22.33
2017-05-22T04:27:56.159Z,22.49
2017-05-22T04:28:58.014Z,22.61
2017-05-22T04:29:59.869Z,22.58
2017-05-22T04:31:01.698Z,22.62
2017-05-22T04:32:03.556Z,22.62
2017-05-22T04:33:05.615Z,22.68
2017-05-22T04:34:07.466Z,22.82
2017-05-22T04:35:09.292Z,23.01
2017-05-22T04:36:11.122Z,23.09
2017-05-22T04:37:25.239Z,23.31
2017-05-22T04:38:27.091Z,23.54
2017-05-22T04:39:28.955Z,23.51
2017-05-22T04:40:30.798Z,23.68
2017-05-22T04:41:32.634Z,23.76
2017-05-22T04:42:34.490Z,23.84
2017-05-22T04:43:36.348Z,23.97
2017-05-22T04:44:38.201Z,24.03
2017-05-22T04:45:40.056Z,24.06
2017-05-22T04:46:54.193Z,24.20
2017-05-22T04:47:56.057Z,24.20
2017-05-22T04:48:58.316Z,24.34
2017-05-22T04:50:00.164Z,24.31
2017-05-22T04:51:01.999Z,24.25
2017-05-22T04:52:03.857Z,24.34
2017-05-22T04:53:05.707Z,24.31
2017-05-22T04:54:07.569Z,24.27
2017-05-22T04:55:09.426Z,24.12
2017-05-22T04:56:23.613Z,24.02
2017-05-22T04:57:25.471Z,23.80
2017-05-22T04:58:27.324Z,23.68
2017-05-22T04:59:29.237Z,23.55
2017-05-22T05:00:31.099Z,23.54
2017-05-22T05:01:32.953Z,23.40
2017-05-22T05:02:34.819Z,23.32
2017-05-22T05:03:36.638Z,22.86
2017-05-22T05:04:38.484Z,22.37
2017-05-22T05:05:52.595Z,22.02
2017-05-22T05:06:54.424Z,21.94
2017-05-22T05:07:56.289Z,21.87
2017-05-22T05:08:58.139Z,21.47
2017-05-22T05:10:00.091Z,21.25
2017-05-22T05:11:01.952Z,20.91
2017-05-22T05:12:03.801Z,20.55
2017-05-22T05:13:05.663Z,20.11
2017-05-22T05:14:07.514Z,19.56
2017-05-22T05:15:21.822Z,19.32
2017-05-22T05:16:23.681Z,19.18
2017-05-22T05:17:25.530Z,19.08
2017-05-22T05:18:27.358Z,18.84
2017-05-22T05:19:29.209Z,18.90
2017-05-22T05:20:31.087Z,18.95
2017-05-22T05:21:32.913Z,19.10
2017-05-22T05:22:34.772Z,18.90
2017-05-22T05:23:36.619Z,18.76
2017-05-22T05:24:50.752Z,18.44
2017-05-22T05:25:52.581Z,18.33
2017-05-22T05:26:54.422Z,18.30
2017-05-22T05:27:56.254Z,18.29
2017-05-22T05:28:58.107Z,18.17
2017-05-22T05:29:59.961Z,18.02
2017-05-22T05:31:01.915Z,17.93
2017-05-22T05:32:03.760Z,18.12
2017-05-22T05:33:05.584Z,18.14
2017-05-22T05:34:19.766Z,18.11
2017-05-22T05:35:21.620Z,18.17
2017-05-22T05:36:23.775Z,17.90
2017-05-22T05:37:25.621Z,17.93
2017-05-22T05:38:27.450Z,17.92
2017-05-22T05:39:29.299Z,17.86
2017-05-22T05:40:31.157Z,17.68
2017-05-22T05:41:33.001Z,17.49
2017-05-22T05:42:34.852Z,17.40
2017-05-22T05:43:48.955Z,17.18
2017-05-22T05:44:50.805Z,16.96
2017-05-22T05:45:52.626Z,16.96
2017-05-22T05:46:54.852Z,16.82
2017-05-22T05:47:56.702Z,16.58
2017-05-22T05:48:58.531Z,16.56
2017-05-22T05:50:00.376Z,16.50
2017-05-22T05:51:02.226Z,16.42
2017-05-22T05:52:04.179Z,16.34
2017-05-22T05:53:18.311Z,16.11
2017-05-22T05:54:20.154Z,15.96
2017-05-22T05:55:22.004Z,15.75
2017-05-22T05:56:23.831Z,15.72
2017-05-22T05:57:26.023Z,15.74
2017-05-22T05:58:27.889Z,15.92
2017-05-22T05:59:29.714Z,16.07
2017-05-22T06:00:31.543Z,15.94
2017-05-22T06:01:33.388Z,15.90
2017-05-22T06:02:47.521Z,15.94
2017-05-22T06:03:49.374Z,15.93
2017-05-22T06:04:51.220Z,15.94
2017-05-22T06:05:53.067Z,15.89
2017-05-22T06:06:54.916Z,15.87
2017-05-22T06:07:57.146Z,15.93
2017-05-22T06:08:58.969Z,16.00
2017-05-22T06:10:00.811Z,16.01
2017-05-22T06:11:02.639Z,16.05
2017-05-22T06:12:16.877Z,16.01
2017-05-22T06:13:18.731Z,15.93
2017-05-22T06:14:20.578Z,15.84
2017-05-22T06:15:22.402Z,15.96
2017-05-22T06:16:24.230Z,16.12
2017-05-22T06:17:26.081Z,16.24
2017-05-22T06:18:27.956Z,16.14
2017-05-22T06:19:29.805Z,16.14
2017-05-22T06:20:31.652Z,16.12
2017-05-22T06:21:45.786Z,16.01
2017-05-22T06:22:47.632Z,16.00
2017-05-22T06:23:49.861Z,15.96
2017-05-22T06:24:51.711Z,16.01
2017-05-22T06:25:53.557Z,15.96
2017-05-22T06:26:55.409Z,15.96
2017-05-22T06:27:57.263Z,15.97
2017-05-22T06:28:59.130Z,15.94
2017-05-22T06:30:00.983Z,15.96
2017-05-22T06:31:15.164Z,15.93
2017-05-22T06:32:17.010Z,15.92
2017-05-22T06:33:18.835Z,16.01
2017-05-22T06:34:20.984Z,16.04
2017-05-22T06:35:22.837Z,16.25
2017-05-22T06:36:24.682Z,16.41
2017-05-22T06:37:26.532Z,16.50
2017-05-22T06:38:28.385Z,16.52
2017-05-22T06:39:30.238Z,16.42
2017-05-22T06:40:44.417Z,16.33
2017-05-22T06:41:46.243Z,16.45
2017-05-22T06:42:48.092Z,16.46
2017-05-22T06:43:49.961Z,16.35
2017-05-22T06:44:51.784Z,16.46
2017-05-22T06:45:53.639Z,16.50
2017-05-22T06:46:55.462Z,16.61
2017-05-22T06:47:57.309Z,16.73
2017-05-22T06:48:59.157Z,16.76
2017-05-22T06:50:13.365Z,16.78
2017-05-22T06:51:15.212Z,16.60
2017-05-22T06:52:17.031Z,16.60
2017-05-22T06:53:18.857Z,16.45
2017-05-22T06:54:20.706Z,16.49
2017-05-22T06:55:22.858Z,16.43
2017-05-22T06:56:24.706Z,16.41
2017-05-22T06:57:26.532Z,16.42
2017-05-22T06:58:28.344Z,16.41
2017-05-22T06:59:42.479Z,16.50
2017-05-22T07:00:44.297Z,16.50
2017-05-22T07:01:46.155Z,16.45
2017-05-22T07:02:48.007Z,16.38
2017-05-22T07:03:49.856Z,16.42
2017-05-22T07:04:51.708Z,16.53
2017-05-22T07:05:53.578Z,16.49
2017-05-22T07:06:55.435Z,16.38
2017-05-22T07:07:57.281Z,16.34
2017-05-22T07:09:11.457Z,16.31
2017-05-22T07:10:13.315Z,16.34
2017-05-22T07:11:15.340Z,16.31
2017-05-22T07:12:17.189Z,16.27
2017-05-22T07:13:19.041Z,16.34
2017-05-22T07:14:20.891Z,16.27
2017-05-22T07:15:22.712Z,16.24
2017-05-22T07:16:24.581Z,16.25
2017-05-22T07:17:26.406Z,16.28
2017-05-22T07:18:40.537Z,16.41
2017-05-22T07:19:42.390Z,16.39
2017-05-22T07:20:44.245Z,16.45
2017-05-22T07:21:46.195Z,16.50
2017-05-22T07:22:48.042Z,16.61
2017-05-22T07:23:49.892Z,16.76
2017-05-22T07:24:51.748Z,16.89
2017-05-22T07:25:53.570Z,16.86
2017-05-22T07:26:55.825Z,17.01
2017-05-22T07:28:09.955Z,16.89
2017-05-22T07:29:11.814Z,16.86
2017-05-22T07:30:13.664Z,16.97
2017-05-22T07:31:15.510Z,16.85
2017-05-22T07:32:17.363Z,16.81
2017-05-22T07:33:19.219Z,16.83
2017-05-22T07:34:21.064Z,16.70
2017-05-22T07:35:22.892Z,16.76
2017-05-22T07:36:24.737Z,16.82
2017-05-22T07:37:39.328Z,16.97
2017-05-22T07:38:41.173Z,17.00
2017-05-22T07:39:43.021Z,17.00
2017-05-22T07:40:44.870Z,16.97
2017-05-22T07:41:46.692Z,16.98
2017-05-22T07:42:48.639Z,17.03
2017-05-22T07:43:50.492Z,17.15
2017-05-22T07:44:52.349Z,17.31
2017-05-22T07:45:54.171Z,17.28
2017-05-22T07:47:08.648Z,17.33
2017-05-22T07:48:10.467Z,17.25
2017-05-22T07:49:12.292Z,17.30
2017-05-22T07:50:14.116Z,17.30
2017-05-22T07:51:15.940Z,17.48
2017-05-22T07:52:17.793Z,17.64
2017-05-22T07:53:19.846Z,17.75
2017-05-22T07:54:21.699Z,17.90
2017-05-22T07:55:23.606Z,17.99
2017-05-22T07:56:37.693Z,17.92
2017-05-22T07:57:39.542Z,17.81
2017-05-22T07:58:41.466Z,17.75
2017-05-22T07:59:43.319Z,17.62
2017-05-22T08:00:45.180Z,17.43
2017-05-22T08:01:47.020Z,17.40
2017-05-22T08:02:48.849Z,17.44
2017-05-22T08:03:50.904Z,17.36
2017-05-22T08:04:52.752Z,17.59
2017-05-22T08:06:06.875Z,17.62
2017-05-22T08:07:08.704Z,17.64
2017-05-22T08:08:10.528Z,17.72
2017-05-22T08:09:12.376Z,17.63
2017-05-22T08:10:14.229Z,17.63
2017-05-22T08:11:16.077Z,17.74
2017-05-22T08:12:17.928Z,17.84
2017-05-22T08:13:19.781Z,17.95
2017-05-22T08:14:22.006Z,17.93
2017-05-22T08:15:36.194Z,17.93
2017-05-22T08:16:38.038Z,17.78
2017-05-22T08:17:39.871Z,17.70
2017-05-22T08:18:41.750Z,17.68
2017-05-22T08:19:43.683Z,17.66
2017-05-22T08:20:45.535Z,17.68
2017-05-22T08:21:47.361Z,17.72
2017-05-22T08:22:49.216Z,17.82
2017-05-22T08:23:51.064Z,17.90
2017-05-22T08:25:05.199Z,17.89
2017-05-22T08:26:07.049Z,17.95
2017-05-22T08:27:08.903Z,18.02
2017-05-22T08:28:10.734Z,17.97
2017-05-22T08:29:12.616Z,18.02
2017-05-22T08:30:14.633Z,18.10
2017-05-22T08:31:16.474Z,18.11
2017-05-22T08:32:18.317Z,18.18
2017-05-22T08:33:20.172Z,18.21
2017-05-22T08:34:34.707Z,18.25
2017-05-22T08:35:36.554Z,18.25
2017-05-22T08:36:38.421Z,18.35
2017-05-22T08:37:40.266Z,18.45
2017-05-22T08:38:42.088Z,18.54
2017-05-22T08:39:43.918Z,18.70
2017-05-22T08:40:45.784Z,18.70
2017-05-22T08:41:47.618Z,18.73
2017-05-22T08:42:49.469Z,18.66
2017-05-22T08:44:03.626Z,18.65
2017-05-22T08:45:05.482Z,18.70
2017-05-22T08:46:07.536Z,18.70
2017-05-22T08:47:09.409Z,18.66
2017-05-22T08:48:11.238Z,18.62
2017-05-22T08:49:13.091Z,18.70
2017-05-22T08:50:14.941Z,18.80
2017-05-22T08:51:16.825Z,18.92
2017-05-22T08:52:18.648Z,18.90
2017-05-22T08:53:32.785Z,19.04
2017-05-22T08:54:34.638Z,19.13
2017-05-22T08:55:36.492Z,19.13
2017-05-22T08:56:38.699Z,19.22
2017-05-22T08:57:40.543Z,19.29
2017-05-22T08:58:42.404Z,19.32
2017-05-22T08:59:44.254Z,19.43
2017-05-22T09:00:46.089Z,19.33
2017-05-22T09:01:48.045Z,19.36
2017-05-22T09:03:02.174Z,19.13
2017-05-22T09:04:04.034Z,19.25
2017-05-22T09:05:05.884Z,19.31
2017-05-22T09:06:07.746Z,19.40
2017-05-22T09:07:09.622Z,19.39
2017-05-22T09:08:11.474Z,19.28
2017-05-22T09:09:13.324Z,19.11
2017-05-22T09:10:15.180Z,19.21
2017-05-22T09:11:17.005Z,19.07
2017-05-22T09:12:35.178Z,18.99
2017-05-22T09:13:37.032Z,19.16
2017-05-22T09:14:40.882Z,19.23
2017-05-22T09:15:45.122Z,19.40
2017-05-22T09:16:53.220Z,19.54
2017-05-22T09:17:55.705Z,19.63
2017-05-22T09:18:57.757Z,19.71
2017-05-22T09:20:00.188Z,19.73
2017-05-22T09:21:03.660Z,19.84
2017-05-22T09:22:18.003Z,19.87
2017-05-22T09:23:20.462Z,19.81
2017-05-22T09:24:22.319Z,19.80
2017-05-22T09:25:25.350Z,19.77
2017-05-22T09:26:27.791Z,19.73
2017-05-22T09:27:31.257Z,19.68
2017-05-22T09:28:33.109Z,19.66
2017-05-22T09:29:34.943Z,19.73
2017-05-22T09:30:36.798Z,19.74
2017-05-22T09:31:50.935Z,19.91
2017-05-22T09:32:52.766Z,20.01
2017-05-22T09:33:54.869Z,20.11
2017-05-22T09:34:56.731Z,20.06
2017-05-22T09:35:58.582Z,19.96
2017-05-22T09:37:00.411Z,19.88
2017-05-22T09:38:02.267Z,19.87
2017-05-22T09:39:04.322Z,19.74
2017-05-22T09:40:06.153Z,19.69
2017-05-22T09:41:20.284Z,19.68
2017-05-22T09:42:22.136Z,19.71
2017-05-22T09:43:23.996Z,19.65
2017-05-22T09:44:25.871Z,19.48
2017-05-22T09:45:27.730Z,19.43
2017-05-22T09:46:29.578Z,19.28
2017-05-22T09:47:31.410Z,19.29
2017-05-22T09:48:33.260Z,19.16
2017-05-22T09:49:35.115Z,19.16
2017-05-22T09:50:49.227Z,19.21
2017-05-22T09:51:51.077Z,19.19
2017-05-22T09:52:52.936Z,19.16
2017-05-22T09:53:54.762Z,19.19
2017-05-22T09:54:56.621Z,19.29
2017-05-22T09:55:58.467Z,19.39
2017-05-22T09:57:00.300Z,19.43
2017-05-22T09:58:02.151Z,19.43
2017-05-22T09:59:04.005Z,19.44
2017-05-22T10:00:18.438Z,19.56
2017-05-22T10:01:20.292Z,19.63
2017-05-22T10:02:22.147Z,19.58
2017-05-22T10:03:23.973Z,19.61
2017-05-22T10:04:25.829Z,19.63
2017-05-22T10:05:27.962Z,19.76
2017-05-22T10:06:29.806Z,19.95
2017-05-22T10:07:31.637Z,19.91
2017-05-22T10:08:33.487Z,19.96
2017-05-22T10:09:47.860Z,19.99
2017-05-22T10:10:49.750Z,20.06
2017-05-22T10:11:51.594Z,20.10
2017-05-22T10:12:53.445Z,20.14
2017-05-22T10:13:55.298Z,20.18
2017-05-22T10:14:57.120Z,20.29
2017-05-22T10:15:58.996Z,20.23
2017-05-22T10:17:00.825Z,20.36
2017-05-22T10:18:02.675Z,20.47
2017-05-22T10:19:16.790Z,20.20
2017-05-22T10:20:18.642Z,20.13
2017-05-22T10:21:20.504Z,20.02
2017-05-22T10:22:22.328Z,20.11
2017-05-22T10:23:24.183Z,20.16
2017-05-22T10:24:26.008Z,20.20
2017-05-22T10:25:27.838Z,20.31
2017-05-22T10:26:29.696Z,20.32
2017-05-22T10:27:31.552Z,20.16
2017-05-22T10:28:45.684Z,20.10
2017-05-22T10:29:47.518Z,20.10
2017-05-22T10:30:49.372Z,20.11
2017-05-22T10:31:51.225Z,20.11
2017-05-22T10:32:53.083Z,20.16
2017-05-22T10:33:54.932Z,20.41
2017-05-22T10:34:56.807Z,20.54
2017-05-22T10:35:58.666Z,20.59
2017-05-22T10:37:00.720Z,20.55
2017-05-22T10:38:14.900Z,20.39
2017-05-22T10:39:16.728Z,20.26
2017-05-22T10:40:18.563Z,20.36
2017-05-22T10:41:20.413Z,20.55
2017-05-22T10:42:22.267Z,20.58
2017-05-22T10:43:24.123Z,20.51
2017-05-22T10:44:25.977Z,20.57
2017-05-22T10:45:27.805Z,20.55
2017-05-22T10:46:29.688Z,20.48
2017-05-22T10:47:43.901Z,20.20
2017-05-22T10:48:45.753Z,20.10
2017-05-22T10:49:47.608Z,20.20
2017-05-22T10:50:49.434Z,20.26
2017-05-22T10:51:51.300Z,20.20
2017-05-22T10:52:53.153Z,20.11
2017-05-22T10:53:55.005Z,20.11
2017-05-22T10:54:56.835Z,20.17
2017-05-22T10:55:58.659Z,20.18
2017-05-22T10:57:13.097Z,20.24
2017-05-22T10:58:14.952Z,20.21
2017-05-22T10:59:16.808Z,20.18
2017-05-22T11:00:18.635Z,20.08
2017-05-22T11:01:20.490Z,20.20
2017-05-22T11:02:22.344Z,20.32
2017-05-22T11:03:24.503Z,20.38
2017-05-22T11:04:26.348Z,20.57
2017-05-22T11:05:28.189Z,20.61
2017-05-22T11:06:42.303Z,20.84
2017-05-22T11:07:44.170Z,20.94
2017-05-22T11:08:46.020Z,20.94
2017-05-22T11:09:47.848Z,20.77
2017-05-22T11:10:49.708Z,20.74
2017-05-22T11:11:51.560Z,20.57
2017-05-22T11:12:53.414Z,20.61
2017-05-22T11:13:55.276Z,20.69
2017-05-22T11:14:57.126Z,20.91
2017-05-22T11:16:11.291Z,20.95
2017-05-22T11:17:13.139Z,21.17
2017-05-22T11:18:14.973Z,21.28
2017-05-22T11:19:16.929Z,21.52
2017-05-22T11:20:18.782Z,21.61
2017-05-22T11:21:20.609Z,21.82
2017-05-22T11:22:22.464Z,21.83
2017-05-22T11:23:24.296Z,21.91
2017-05-22T11:24:26.152Z,21.80
2017-05-22T11:25:40.292Z,21.80
2017-05-22T11:26:42.145Z,21.83
2017-05-22T11:27:43.972Z,21.75
2017-05-22T11:28:45.832Z,21.86
2017-05-22T11:29:47.685Z,21.80
2017-05-22T11:30:49.546Z,21.69
2017-05-22T11:31:51.397Z,21.56
2017-05-22T11:32:53.256Z,21.44
2017-05-22T11:33:55.092Z,21.37
2017-05-22T11:35:09.428Z,21.25
2017-05-22T11:36:11.255Z,21.03
2017-05-22T11:37:13.112Z,20.99
2017-05-22T11:38:14.966Z,20.98
2017-05-22T11:39:16.817Z,20.98
2017-05-22T11:40:18.849Z,21.14
2017-05-22T11:41:20.672Z,21.29
2017-05-22T11:42:22.502Z,21.42
2017-05-22T11:43:24.362Z,21.44
2017-05-22T11:44:38.703Z,21.50
2017-05-22T11:45:40.556Z,21.50
2017-05-22T11:46:42.412Z,21.58
2017-05-22T11:47:44.267Z,21.42
2017-05-22T11:48:46.123Z,21.43
2017-05-22T11:49:47.980Z,21.40
2017-05-22T11:50:49.833Z,21.58
2017-05-22T11:51:51.667Z,21.65
2017-05-22T11:52:53.494Z,21.82
2017-05-22T11:54:07.628Z,22.00
2017-05-22T11:55:09.461Z,22.12
2017-05-22T11:56:11.318Z,22.07
2017-05-22T11:57:13.168Z,21.90
2017-05-22T11:58:15.029Z,22.06
2017-05-22T11:59:16.880Z,22.15
2017-05-22T12:00:18.735Z,22.03
2017-05-22T12:01:20.664Z,22.06
2017-05-22T12:02:22.511Z,22.03
2017-05-22T12:03:36.633Z,22.28
2017-05-22T12:04:38.460Z,22.36
2017-05-22T12:05:40.313Z,22.51
2017-05-22T12:06:42.472Z,22.70
2017-05-22T12:07:44.337Z,22.79
2017-05-22T12:08:46.159Z,22.85
2017-05-22T12:09:48.015Z,22.70
2017-05-22T12:10:49.868Z,22.43
2017-05-22T12:11:51.726Z,22.43
2017-05-22T12:13:05.864Z,22.55
2017-05-22T12:14:07.727Z,22.65
2017-05-22T12:15:09.578Z,22.62
2017-05-22T12:16:11.431Z,22.70
2017-05-22T12:17:13.312Z,22.85
2017-05-22T12:18:15.143Z,23.05
2017-05-22T12:19:17.048Z,22.85
2017-05-22T12:20:18.875Z,22.64
2017-05-22T12:21:20.709Z,22.65
2017-05-22T12:22:35.049Z,22.72
2017-05-22T12:23:36.906Z,22.77
2017-05-22T12:24:38.765Z,22.68
2017-05-22T12:25:40.619Z,22.79
2017-05-22T12:26:42.443Z,22.75
2017-05-22T12:27:44.332Z,22.64
2017-05-22T12:28:46.187Z,22.65
2017-05-22T12:29:48.038Z,22.70
2017-05-22T12:30:49.896Z,22.73
2017-05-22T12:32:07.243Z,22.86
2017-05-22T12:33:09.101Z,22.75
2017-05-22T12:34:10.929Z,22.94
2017-05-22T12:35:12.791Z,23.02
2017-05-22T12:36:14.644Z,22.97
2017-05-22T12:37:16.503Z,23.07
2017-05-22T12:38:18.357Z,23.02
2017-05-22T12:39:20.219Z,23.04
2017-05-22T12:40:22.081Z,23.04
2017-05-22T12:41:36.217Z,23.12
2017-05-22T12:42:38.074Z,23.07
2017-05-22T12:43:40.028Z,23.19
2017-05-22T12:44:41.890Z,23.36
2017-05-22T12:45:43.744Z,23.47
2017-05-22T12:46:45.801Z,23.53
2017-05-22T12:47:47.636Z,23.47
2017-05-22T12:48:49.701Z,23.58
2017-05-22T12:49:51.550Z,23.48
2017-05-22T12:51:05.688Z,23.60
2017-05-22T12:52:07.550Z,23.51
2017-05-22T12:53:09.405Z,23.47
2017-05-22T12:54:11.260Z,23.57
2017-05-22T12:55:13.117Z,23.61
2017-05-22T12:56:14.973Z,23.75
2017-05-22T12:57:16.835Z,23.76
2017-05-22T12:58:18.695Z,23.75
2017-05-22T12:59:20.549Z,23.78
2017-05-22T13:00:34.734Z,23.60
2017-05-22T13:01:36.562Z,23.55
2017-05-22T13:02:38.422Z,23.57
2017-05-22T13:03:40.276Z,23.60
2017-05-22T13:04:42.188Z,23.58
2017-05-22T13:05:44.043Z,23.48
2017-05-22T13:06:45.879Z,23.55
2017-05-22T13:07:47.711Z,23.65
2017-05-22T13:08:49.563Z,23.54
2017-05-22T13:10:03.731Z,23.53
2017-05-22T13:11:05.586Z,23.60
2017-05-22T13:12:07.447Z,23.61
2017-05-22T13:13:09.310Z,23.84
2017-05-22T13:14:11.169Z,24.06
2017-05-22T13:15:16.225Z,24.06
2017-05-22T13:16:18.081Z,24.13
2017-05-22T13:17:19.942Z,24.06
2017-05-22T13:18:21.800Z,24.02
2017-05-22T13:19:35.935Z,24.00
2017-05-22T13:20:37.795Z,23.84
2017-05-22T13:21:39.652Z,23.75
2017-05-22T13:22:41.482Z,23.79
2017-05-22T13:23:43.341Z,23.97
2017-05-22T13:24:45.167Z,23.84
2017-05-22T13:25:47.026Z,23.84
2017-05-22T13:26:48.879Z,23.87
2017-05-22T13:27:50.714Z,24.00
2017-05-22T13:29:04.906Z,23.70
2017-05-22T13:30:06.768Z,23.68
2017-05-22T13:31:08.622Z,23.55
2017-05-22T13:32:10.482Z,23.55
2017-05-22T13:33:12.334Z,23.43
2017-05-22T13:34:14.159Z,23.25